Time;durP1;ratioP1;P1;durP2;ratioP2;P2;SDS_P1;SDS_P2;PMS_P1;PMS_P2;Temp;Humidity;BMP_temperature;BMP_pressure;BME280_temperature;BME280_humidity;BME280_pressure;Samples;Min_cycle;Max_cycle;Signal;HPM_P1;HPM_P2
2022/01/08 00:00:12;;;;;;;4.95;2.35;;;;;;;2.84;48.96;101296.27;1675422;84;21229;-62
2022/01/08 00:02:42;;;;;;;5.12;1.90;;;;;;;2.88;49.12;101293.84;1677694;83;21090;-62
2022/01/08 00:05:10;;;;;;;5.35;2.40;;;;;;;0.87;52.04;101298.55;1675826;84;20937;-65
2022/01/08 00:07:40;;;;;;;5.05;1.92;;;;;;;0.62;54.33;101302.24;1676991;84;20886;-62
2022/01/08 00:10:08;;;;;;;6.80;2.58;;;;;;;0.69;55.42;101300.49;1676559;84;20980;-62
2022/01/08 00:12:34;;;;;;;5.55;1.80;;;;;;;0.64;56.93;101295.26;1694256;83;21118;-62
2022/01/08 00:15:01;;;;;;;4.10;2.08;;;;;;;0.87;57.49;101290.00;1694107;83;21079;-62
2022/01/08 00:17:29;;;;;;;4.53;1.87;;;;;;;1.03;57.61;101285.58;1694875;83;21556;-61
2022/01/08 00:19:58;;;;;;;4.28;1.98;;;;;;;1.13;57.34;101287.91;1696750;83;21549;-61
2022/01/08 00:22:27;;;;;;;5.47;1.82;;;;;;;2.72;54.20;101280.84;1672524;84;21512;-64
2022/01/08 00:24:55;;;;;;;5.87;2.25;;;;;;;3.14;51.04;101285.99;1714832;82;21165;-67
2022/01/08 00:27:24;;;;;;;5.55;2.20;;;;;;;3.53;50.16;101284.08;1714689;82;21665;-61
2022/01/08 00:29:51;;;;;;;4.60;1.85;;;;;;;3.40;49.53;101285.41;1722271;81;21001;-61
2022/01/08 00:32:20;;;;;;;6.00;2.40;;;;;;;3.20;49.57;101284.28;1729285;81;21057;-61
2022/01/08 00:34:46;;;;;;;4.72;2.00;;;;;;;3.13;49.69;101286.47;1727302;81;21595;-64
2022/01/08 00:37:15;;;;;;;5.75;2.30;;;;;;;3.28;49.30;101287.59;1730182;81;21095;-61
2022/01/08 00:39:41;;;;;;;4.55;2.22;;;;;;;3.26;49.23;101292.88;1712071;82;20956;-61
2022/01/08 00:42:07;;;;;;;5.33;2.65;;;;;;;3.32;48.97;101302.72;1717895;82;20932;-61
2022/01/08 00:44:34;;;;;;;8.70;3.85;;;;;;;3.29;48.74;101302.11;1728811;81;21074;-64
2022/01/08 00:47:03;;;;;;;11.00;4.47;;;;;;;3.34;48.43;101312.94;1728658;81;20963;-60
2022/01/08 00:49:31;;;;;;;8.98;4.50;;;;;;;3.24;48.43;101313.23;1710404;82;21525;-61
2022/01/08 00:51:58;;;;;;;8.33;3.80;;;;;;;3.23;48.26;101307.72;1715609;82;21509;-62
2022/01/08 00:54:26;;;;;;;6.95;2.70;;;;;;;2.94;48.42;101304.16;1705896;82;21658;-60
2022/01/08 00:56:53;;;;;;;5.22;2.25;;;;;;;3.09;48.13;101294.05;1711345;82;21560;-64
2022/01/08 00:59:20;;;;;;;5.05;1.90;;;;;;;3.00;48.15;101297.30;1711784;82;21078;-63
2022/01/08 01:01:47;;;;;;;7.78;2.77;;;;;;;3.16;48.14;101300.42;1717083;82;21168;-60
2022/01/08 01:04:13;;;;;;;7.10;3.10;;;;;;;3.20;48.19;101300.20;1729832;81;21576;-60
2022/01/08 01:06:41;;;;;;;7.90;3.20;;;;;;;3.34;48.06;101298.77;1711083;82;20996;-62
2022/01/08 01:09:08;;;;;;;9.18;3.98;;;;;;;3.38;48.15;101296.31;1716805;82;21083;-62
2022/01/08 01:11:36;;;;;;;6.42;3.10;;;;;;;3.42;47.99;101299.02;1728320;81;21094;-61
2022/01/08 01:14:02;;;;;;;7.55;2.60;;;;;;;3.38;47.82;101297.61;1729719;81;21130;-60
2022/01/08 01:16:29;;;;;;;5.65;2.25;;;;;;;3.47;47.64;101305.95;1727838;81;20999;-60
2022/01/08 01:18:59;;;;;;;5.35;2.10;;;;;;;3.46;47.38;101303.02;1711994;82;21111;-63
2022/01/08 01:21:25;;;;;;;7.20;2.77;;;;;;;3.45;47.48;101297.52;1702462;82;21122;-61
2022/01/08 01:23:54;;;;;;;5.50;2.47;;;;;;;3.01;47.91;101295.07;1717484;82;21434;-63
2022/01/08 01:26:25;;;;;;;4.62;2.10;;;;;;;2.93;48.46;101290.93;1716504;82;21139;-64
2022/01/08 01:29:11;;;;;;;5.47;1.90;;;;;;;3.07;48.65;101295.09;1727826;81;21050;-65
2022/01/08 01:42:27;;;;;;;13.43;4.40;;;;;;;3.27;47.55;101304.00;1729630;81;21251;-62
2022/01/08 01:47:35;;;;;;;10.75;5.50;;;;;;;3.16;47.44;101308.16;1711840;82;21161;-60
2022/01/08 01:50:04;;;;;;;13.95;6.65;;;;;;;3.14;47.25;101306.60;1717571;82;20923;-61
2022/01/08 01:52:31;;;;;;;12.15;5.30;;;;;;;2.88;47.30;101305.89;1727988;81;22044;-61
2022/01/08 01:54:58;;;;;;;7.08;2.70;;;;;;;2.67;47.58;101305.62;1711910;82;21048;-61
2022/01/08 01:57:24;;;;;;;7.22;2.98;;;;;;;2.67;47.69;101305.15;1716943;82;21563;-60
2022/01/08 01:59:51;;;;;;;7.80;2.85;;;;;;;2.97;47.39;101311.67;1728659;81;20983;-60
2022/01/08 02:02:17;;;;;;;5.60;2.42;;;;;;;3.20;47.16;101320.82;1729057;80;21658;-62
2022/01/08 02:04:43;;;;;;;5.80;2.55;;;;;;;3.11;47.27;101315.86;1711669;82;21144;-64
2022/01/08 02:07:10;;;;;;;7.37;2.85;;;;;;;3.13;47.28;101321.24;1717489;82;21068;-63
2022/01/08 02:09:40;;;;;;;8.05;4.10;;;;;;;3.29;47.22;101324.84;1727686;81;21536;-61
2022/01/08 02:12:17;;;;;;;7.87;4.05;;;;;;;3.49;46.63;101323.42;1729543;81;21577;-62
2022/01/08 02:14:40;;;;;;;7.28;3.50;;;;;;;3.27;46.56;101320.75;1707519;81;21087;-66
2022/01/08 02:17:08;;;;;;;8.58;4.40;;;;;;;3.17;46.75;101320.09;1725835;81;21829;-63
2022/01/08 02:19:34;;;;;;;7.35;3.80;;;;;;;3.14;46.91;101328.50;1708042;83;21602;-64
2022/01/08 02:22:04;;;;;;;10.30;4.90;;;;;;;3.07;47.15;101332.44;1676365;84;21080;-62
2022/01/08 02:24:33;;;;;;;11.00;4.78;;;;;;;3.15;47.05;101332.75;1679865;83;21458;-60
2022/01/08 02:26:59;;;;;;;9.13;4.08;;;;;;;3.06;46.85;101327.76;1686066;84;20955;-65
2022/01/08 02:29:26;;;;;;;6.22;2.60;;;;;;;3.02;46.60;101325.52;1716127;82;21627;-64
2022/01/08 02:32:08;;;;;;;6.70;2.50;;;;;;;3.03;46.98;101324.57;1728904;81;21586;-64
2022/01/08 02:34:38;;;;;;;5.87;2.85;;;;;;;2.52;47.61;101329.37;1719764;81;21551;-64
2022/01/08 02:37:05;;;;;;;6.58;2.52;;;;;;;2.33;48.46;101341.37;1711834;82;20967;-63
2022/01/08 02:39:38;;;;;;;8.33;3.35;;;;;;;2.35;48.91;101343.83;1717370;82;21101;-60
2022/01/08 02:42:01;;;;;;;8.50;4.70;;;;;;;2.22;48.78;101341.27;1729660;81;21177;-63
2022/01/08 02:44:28;;;;;;;9.45;4.90;;;;;;;2.22;48.93;101352.84;1728250;81;21081;-63
2022/01/08 02:46:54;;;;;;;11.95;5.47;;;;;;;1.98;49.08;101355.29;1728037;81;21129;-61
2022/01/08 02:49:23;;;;;;;10.88;5.78;;;;;;;2.27;48.66;101362.81;1729046;81;21097;-61
2022/01/08 02:51:52;;;;;;;13.05;7.37;;;;;;;2.28;48.28;101364.02;1728504;81;21495;-61
2022/01/08 02:54:18;;;;;;;11.53;7.30;;;;;;;2.11;48.37;101370.27;1729009;80;21080;-60
2022/01/08 02:56:47;;;;;;;22.30;13.70;;;;;;;2.05;48.38;101375.83;1728142;81;21102;-64
2022/01/08 02:59:16;;;;;;;12.93;8.50;;;;;;;2.02;48.39;101382.45;1692024;82;21593;-61
2022/01/08 03:01:45;;;;;;;12.88;7.42;;;;;;;1.91;48.47;101379.75;1659995;84;21103;-61
2022/01/08 03:04:11;;;;;;;10.68;6.87;;;;;;;2.00;48.23;101384.75;1666164;84;20998;-61
2022/01/08 03:06:39;;;;;;;11.68;7.20;;;;;;;1.96;48.23;101393.13;1690383;84;21149;-66
2022/01/08 03:09:09;;;;;;;12.25;7.03;;;;;;;1.93;48.19;101392.03;1689710;84;21585;-60
2022/01/08 03:11:38;;;;;;;10.90;6.40;;;;;;;1.72;48.54;101383.14;1690804;84;21078;-62
2022/01/08 03:14:10;;;;;;;10.32;5.10;;;;;;;1.69;48.68;101386.27;1691074;84;21027;-61
2022/01/08 03:16:37;;;;;;;9.95;5.12;;;;;;;1.66;48.95;101390.30;1690510;84;21050;-66
2022/01/08 03:19:10;;;;;;;7.50;3.50;;;;;;;1.60;48.79;101389.42;1690847;84;21164;-66
2022/01/08 03:21:42;;;;;;;6.72;2.70;;;;;;;1.57;48.86;101388.33;1690975;84;22593;-59
2022/01/08 03:24:15;;;;;;;6.53;2.98;;;;;;;1.57;48.86;101388.33;1690990;84;20948;-62
2022/01/08 03:26:40;;;;;;;6.92;2.87;;;;;;;1.94;48.72;101396.27;1688082;84;20932;-62
2022/01/08 03:29:08;;;;;;;8.05;3.15;;;;;;;1.91;48.50;101402.89;1690266;84;21026;-60
2022/01/08 03:31:34;;;;;;;5.15;2.70;;;;;;;1.90;48.36;101405.92;1690665;84;22194;-60
2022/01/08 03:34:02;;;;;;;5.30;2.47;;;;;;;2.03;48.33;101408.98;1692050;84;21136;-60
2022/01/08 03:36:31;;;;;;;5.75;2.45;;;;;;;1.88;48.34;101412.08;1679426;84;21059;-60
2022/01/08 03:39:00;;;;;;;4.37;2.02;;;;;;;1.74;48.79;101415.52;1685367;84;20982;-64
2022/01/08 03:41:30;;;;;;;4.12;1.90;;;;;;;1.81;48.71;101413.39;1690772;83;21154;-62
2022/01/08 03:43:59;;;;;;;5.83;2.40;;;;;;;1.74;48.87;101410.37;1690419;84;21322;-66
2022/01/08 03:46:33;;;;;;;5.45;2.40;;;;;;;1.76;48.87;101412.41;1726578;81;21097;-61
2022/01/08 03:51:26;;;;;;;5.40;2.70;;;;;;;1.73;49.16;101413.88;1711674;82;21461;-60
2022/01/08 03:53:53;;;;;;;7.25;3.22;;;;;;;1.65;49.23;101418.22;1717307;82;21145;-65
2022/01/08 03:56:24;;;;;;;6.75;3.65;;;;;;;0.98;50.20;101417.23;1721416;82;21160;-61
2022/01/08 03:58:53;;;;;;;;;;;;;;;0.85;51.10;101407.36;1719334;82;20991;-65
2022/01/08 04:01:19;;;;;;;4.80;2.75;;;;;;;0.85;51.45;101409.45;1715797;79;20336;-61
2022/01/08 04:03:46;;;;;;;5.03;2.20;;;;;;;0.95;51.47;101419.55;1712708;83;21078;-60
2022/01/08 04:06:15;;;;;;;6.28;2.45;;;;;;;1.05;51.48;101396.70;1713267;82;21024;-63
2022/01/08 04:08:43;;;;;;;13.75;6.78;;;;;;;1.24;51.30;101426.39;1715582;83;21377;-61
2022/01/08 04:11:09;;;;;;;15.60;8.43;;;;;;;1.28;51.25;101432.53;1711796;82;21030;-65
2022/01/08 04:13:39;;;;;;;13.48;6.42;;;;;;;1.36;51.06;101439.76;1716081;83;21574;-60
2022/01/08 04:16:12;;;;;;;15.63;6.35;;;;;;;1.07;50.96;101439.81;1713213;82;20940;-62
2022/01/08 04:18:38;;;;;;;12.20;6.40;;;;;;;0.90;51.20;101438.70;1715818;83;20982;-61
2022/01/08 04:23:37;;;;;;;20.17;8.65;;;;;;;0.67;51.33;101442.63;1716699;83;21042;-61
2022/01/08 04:26:04;;;;;;;19.65;11.50;;;;;;;0.83;50.84;101433.09;1714760;83;21070;-61
2022/01/08 04:28:30;;;;;;;16.80;8.65;;;;;;;0.72;51.02;101437.61;1658953;84;21112;-61
2022/01/08 04:30:57;;;;;;;10.40;5.33;;;;;;;0.72;51.02;101437.61;1757158;81;21002;-62
2022/01/08 04:33:24;;;;;;;13.58;6.65;;;;;;;0.68;51.93;101434.85;1759370;80;21696;-60
2022/01/08 04:35:50;;;;;;;17.50;8.78;;;;;;;0.96;52.37;101459.70;1759510;80;20997;-60
2022/01/08 04:38:17;;;;;;;19.67;10.20;;;;;;;0.96;52.37;101459.70;1727027;80;21041;-60
2022/01/08 04:40:43;;;;;;;21.75;10.15;;;;;;;0.97;51.49;101465.66;1724814;81;21123;-61
2022/01/08 04:43:15;;;;;;;16.82;9.35;;;;;;;0.97;51.49;101465.66;1721861;81;21664;-62
2022/01/08 04:45:42;;;;;;;14.90;7.95;;;;;;;0.91;51.50;101457.03;1723296;83;22832;-61
2022/01/08 04:48:09;;;;;;;14.45;8.65;;;;;;;0.88;51.75;101464.94;1721534;83;22607;-66
2022/01/08 04:50:35;;;;;;;16.73;10.20;;;;;;;1.16;51.55;101473.09;1723071;81;21004;-62
2022/01/08 04:53:02;;;;;;;20.95;11.75;;;;;;;1.20;51.41;101475.83;1724960;82;21088;-63
2022/01/08 04:55:28;;;;;;;23.90;11.50;;;;;;;1.25;51.32;101475.13;1758343;81;21082;-63
2022/01/08 04:57:56;;;;;;;20.50;11.55;;;;;;;1.38;51.13;101471.34;1760865;80;21149;-62
2022/01/08 05:00:23;;;;;;;13.78;9.08;;;;;;;1.28;51.13;101462.06;1747867;80;20970;-63
2022/01/08 05:02:52;;;;;;;15.45;8.65;;;;;;;1.48;50.84;101463.87;1759601;80;21069;-60
2022/01/08 05:05:19;;;;;;;10.53;6.33;;;;;;;1.48;50.84;101463.87;1760092;80;21069;-66
2022/01/08 05:07:45;;;;;;;32.10;16.17;;;;;;;1.44;50.64;101470.97;1759584;81;20938;-60
2022/01/08 05:10:12;;;;;;;28.10;13.28;;;;;;;1.37;50.91;101471.80;1758007;80;21147;-59
2022/01/08 05:12:41;;;;;;;28.25;14.68;;;;;;;1.31;50.99;101477.30;1758812;80;20948;-60
2022/01/08 05:15:10;;;;;;;19.07;10.75;;;;;;;1.38;50.68;101477.30;1758778;81;21065;-62
2022/01/08 05:17:42;;;;;;;18.85;8.45;;;;;;;1.08;50.76;101490.70;1758266;81;20855;-64
2022/01/08 05:20:12;;;;;;;42.58;17.65;;;;;;;1.20;50.58;101484.83;1761157;80;22516;-62
2022/01/08 05:25:16;;;;;;;116.75;56.25;;;;;;;1.19;50.89;101494.73;1757920;80;21038;-60
2022/01/08 05:27:44;;;;;;;37.50;16.82;;;;;;;1.38;50.46;101491.42;1758936;80;20930;-61
2022/01/08 05:30:11;;;;;;;33.98;18.67;;;;;;;1.07;50.76;101501.90;1757945;80;21066;-65
2022/01/08 05:32:38;;;;;;;33.90;17.98;;;;;;;1.34;50.81;101508.41;1761333;80;21010;-60
2022/01/08 05:35:06;;;;;;;33.63;18.02;;;;;;;1.62;50.95;101505.80;1757902;80;21116;-60
2022/01/08 05:37:35;;;;;;;36.10;19.42;;;;;;;1.97;50.91;101510.52;1759156;80;21461;-65
2022/01/08 05:40:02;;;;;;;33.63;17.02;;;;;;;2.34;51.02;101508.14;1760805;80;21665;-61
2022/01/08 05:42:32;;;;;;;29.18;16.27;;;;;;;2.60;51.32;101512.89;1760440;80;20927;-61
2022/01/08 05:45:00;;;;;;;32.58;21.15;;;;;;;3.09;51.82;101518.18;1761683;80;20998;-62
2022/01/08 05:47:30;;;;;;;36.05;21.40;;;;;;;3.84;51.72;101517.34;1756329;80;21209;-61
2022/01/08 05:49:55;;;;;;;25.45;16.85;;;;;;;4.54;50.99;101517.41;1759310;79;20910;-60
2022/01/08 05:52:23;;;;;;;18.90;12.75;;;;;;;5.21;50.67;101507.66;1747992;80;21068;-60
2022/01/08 05:54:54;;;;;;;26.35;18.05;;;;;;;5.97;50.17;101505.23;1758736;80;21098;-60
2022/01/08 05:57:20;;;;;;;21.85;14.00;;;;;;;6.66;49.61;101507.40;1759104;80;21080;-61
2022/01/08 05:59:47;;;;;;;16.57;9.98;;;;;;;7.63;48.11;101500.05;1760441;80;21143;-62
2022/01/08 06:02:14;;;;;;;32.60;21.30;;;;;;;8.53;46.72;101501.98;1760491;80;20975;-60
2022/01/08 06:04:42;;;;;;;29.30;21.50;;;;;;;8.97;45.74;101488.45;1759411;80;21101;-60
2022/01/08 06:07:14;;;;;;;32.35;21.82;;;;;;;9.62;44.12;101488.41;1758942;80;21125;-61
2022/01/08 06:09:40;;;;;;;34.83;21.45;;;;;;;9.45;43.51;101493.45;1753985;79;21535;-63
2022/01/08 06:12:11;;;;;;;33.78;22.27;;;;;;;9.77;42.60;101496.06;1758563;80;21049;-62
2022/01/08 06:14:37;;;;;;;36.17;22.75;;;;;;;10.28;41.54;101495.92;1757281;81;21608;-62
2022/01/08 06:17:04;;;;;;;34.45;21.97;;;;;;;10.73;40.07;101494.14;1760991;80;20970;-62
2022/01/08 06:19:32;;;;;;;29.12;18.48;;;;;;;10.94;38.75;101490.66;1759669;80;21559;-66
2022/01/08 06:22:00;;;;;;;25.32;17.07;;;;;;;11.10;38.01;101490.76;1755008;81;22483;-67
2022/01/08 06:24:26;;;;;;;24.70;15.95;;;;;;;11.42;37.55;101487.94;1758880;81;22208;-65
2022/01/08 06:26:56;;;;;;;27.58;17.65;;;;;;;11.67;36.84;101497.98;1758032;81;20959;-65
2022/01/08 06:29:23;;;;;;;27.98;19.40;;;;;;;12.05;36.26;101497.09;1747659;81;20955;-66
2022/01/08 06:31:50;;;;;;;26.97;17.30;;;;;;;12.41;35.64;101495.77;1750381;81;20907;-67
2022/01/08 06:34:16;;;;;;;26.23;17.63;;;;;;;12.53;35.83;101498.05;1748084;81;21199;-66
2022/01/08 06:36:43;;;;;;;21.83;15.13;;;;;;;12.94;34.86;101501.91;1758944;81;21344;-65
2022/01/08 06:39:11;;;;;;;24.27;16.33;;;;;;;13.03;34.46;101504.81;1757365;81;21320;-65
2022/01/08 06:41:37;;;;;;;22.83;16.53;;;;;;;13.19;34.54;101509.20;1761747;80;21740;-68
2022/01/08 06:44:06;;;;;;;20.70;14.33;;;;;;;13.32;33.94;101511.61;1758894;80;21295;-63
2022/01/08 06:46:34;;;;;;;20.53;14.10;;;;;;;13.31;34.00;101504.75;1752719;80;21542;-63
2022/01/08 06:49:00;;;;;;;17.73;12.47;;;;;;;13.90;32.32;101508.69;1759470;80;21300;-64
2022/01/08 06:51:27;;;;;;;21.77;16.23;;;;;;;13.90;32.32;101508.69;1760922;80;21643;-64
2022/01/08 06:53:55;;;;;;;23.63;17.60;;;;;;;14.05;32.53;101506.94;1757799;81;21731;-70
2022/01/08 06:56:25;;;;;;;25.50;18.73;;;;;;;14.19;31.99;101517.17;1748110;80;23199;-65
2022/01/08 06:58:55;;;;;;;21.63;15.77;;;;;;;14.33;31.97;101517.72;1758973;80;21775;-63
2022/01/08 07:01:23;;;;;;;21.40;15.50;;;;;;;14.16;31.79;101522.27;1758660;81;21651;-64
2022/01/08 07:03:50;;;;;;;21.50;15.53;;;;;;;14.46;31.55;101520.55;1758271;81;21639;-69
2022/01/08 07:06:17;;;;;;;23.37;17.40;;;;;;;14.72;31.35;101519.37;1755919;81;22464;-70
2022/01/08 07:08:49;;;;;;;19.90;14.93;;;;;;;14.64;30.66;101521.57;1760630;80;22764;-63
2022/01/08 07:11:16;;;;;;;15.70;11.43;;;;;;;14.63;30.72;101529.13;1759828;80;21098;-62
2022/01/08 07:13:43;;;;;;;14.90;11.83;;;;;;;14.73;30.64;101526.23;1757327;81;22055;-69
2022/01/08 07:16:10;;;;;;;16.03;11.30;;;;;;;14.77;30.90;101520.94;1758676;80;20960;-72
2022/01/08 07:18:36;;;;;;;16.17;11.57;;;;;;;14.96;31.34;101531.41;1757462;81;20995;-63
2022/01/08 07:21:04;;;;;;;14.83;11.13;;;;;;;15.05;31.60;101531.66;1758998;80;20919;-61
2022/01/08 07:23:31;;;;;;;17.07;11.67;;;;;;;15.19;32.35;101532.63;1757557;80;21049;-63
2022/01/08 07:25:57;;;;;;;28.90;18.27;;;;;;;15.13;32.50;101532.88;1756600;81;21857;-63
2022/01/08 07:28:29;;;;;;;26.37;17.43;;;;;;;15.29;32.35;101533.18;1759250;80;21021;-69
2022/01/08 07:30:55;;;;;;;17.75;11.88;;;;;;;14.77;31.00;101517.84;1761392;80;21549;-65
2022/01/08 07:33:21;;;;;;;11.23;7.20;;;;;;;14.63;31.30;101518.64;1761187;80;21003;-64
2022/01/08 07:35:50;;;;;;;12.23;8.50;;;;;;;14.93;31.29;101524.73;1760219;81;20903;-64
2022/01/08 07:38:16;;;;;;;12.13;8.73;;;;;;;14.99;30.89;101525.81;1757917;80;21506;-65
2022/01/08 07:40:43;;;;;;;13.07;7.93;;;;;;;15.06;30.28;101530.66;1760199;81;21041;-64
2022/01/08 07:43:09;;;;;;;11.47;7.63;;;;;;;14.89;31.29;101527.88;1758119;80;21035;-64
2022/01/08 07:45:36;;;;;;;10.20;6.77;;;;;;;14.58;32.43;101531.45;1757569;81;20959;-65
2022/01/08 07:48:07;;;;;;;13.27;8.60;;;;;;;14.82;30.59;101535.17;1755200;81;21519;-63
2022/01/08 07:50:36;;;;;;;13.77;10.43;;;;;;;14.71;31.16;101540.05;1760860;80;21066;-64
2022/01/08 07:53:02;;;;;;;17.03;11.43;;;;;;;14.77;31.02;101537.53;1757960;80;21053;-63
2022/01/08 07:55:29;;;;;;;19.47;13.73;;;;;;;14.73;30.92;101540.17;1758929;81;20935;-63
2022/01/08 07:57:55;;;;;;;20.97;15.57;;;;;;;15.11;31.03;101533.55;1758367;80;20934;-69
2022/01/08 08:00:24;;;;;;;24.50;16.40;;;;;;;15.57;30.85;101530.71;1750161;80;21067;-70
2022/01/08 08:02:51;;;;;;;22.63;16.23;;;;;;;15.72;32.46;101529.36;1757512;80;21177;-64
2022/01/08 08:05:17;;;;;;;21.90;16.13;;;;;;;15.26;31.42;101527.78;1758100;81;21069;-65
2022/01/08 08:07:44;;;;;;;22.13;16.73;;;;;;;14.74;32.27;101528.70;1760841;81;21469;-65
2022/01/08 08:10:17;;;;;;;21.87;16.40;;;;;;;14.72;32.42;101528.05;1759707;80;21528;-66
2022/01/08 08:12:46;;;;;;;21.20;16.03;;;;;;;14.73;33.26;101519.67;1758439;81;21578;-65
2022/01/08 08:15:15;;;;;;;19.05;15.58;;;;;;;14.83;31.06;101517.11;1759793;80;20997;-65
2022/01/08 08:17:45;;;;;;;21.33;16.17;;;;;;;14.88;31.13;101523.62;1759631;80;20895;-68
2022/01/08 08:20:13;;;;;;;21.97;16.47;;;;;;;14.94;31.14;101513.73;1758600;81;21086;-63
2022/01/08 08:22:41;;;;;;;23.23;15.47;;;;;;;14.81;30.68;101513.87;1759169;80;21547;-62
2022/01/08 08:25:10;;;;;;;21.10;15.13;;;;;;;14.81;30.28;101509.09;1761041;80;21061;-63
2022/01/08 08:27:39;;;;;;;22.53;15.63;;;;;;;14.49;30.01;101512.36;1759795;80;21181;-66
2022/01/08 08:30:07;;;;;;;20.27;14.77;;;;;;;14.18;30.36;101514.23;1760033;80;20935;-66
2022/01/08 08:32:36;;;;;;;21.03;15.20;;;;;;;14.25;31.03;101513.36;1756724;80;21436;-65
2022/01/08 08:35:04;;;;;;;19.37;14.53;;;;;;;14.14;30.36;101509.03;1760448;81;20993;-66
2022/01/08 08:37:30;;;;;;;22.47;16.03;;;;;;;13.84;30.02;101499.23;1759131;81;21549;-71
2022/01/08 08:40:11;;;;;;;71.63;62.20;;;;;;;13.38;30.95;101500.47;1760427;80;21202;-66
2022/01/08 08:42:39;;;;;;;24.37;17.75;;;;;;;13.38;30.95;101500.47;1692804;84;27257;-65
2022/01/08 08:45:08;;;;;;;146.47;88.97;;;;;;;13.52;30.71;101508.58;1690196;84;21065;-65
2022/01/08 08:47:35;;;;;;;143.80;88.50;;;;;;;13.42;31.19;101503.56;1692501;83;21771;-69
2022/01/08 08:50:02;;;;;;;86.90;53.43;;;;;;;13.64;31.26;101504.60;1689746;84;21712;-65
2022/01/08 08:52:29;;;;;;;59.40;39.57;;;;;;;13.81;32.07;101506.12;1661529;84;21773;-66
2022/01/08 08:54:56;;;;;;;35.40;25.37;;;;;;;14.22;30.66;101491.91;1693021;84;22058;-65
2022/01/08 08:57:23;;;;;;;28.87;20.17;;;;;;;14.29;30.00;101486.28;1684066;83;22203;-64
2022/01/08 08:59:49;;;;;;;28.37;18.87;;;;;;;14.10;29.73;101490.20;1694501;83;21554;-65
2022/01/08 09:02:21;;;;;;;63.67;52.20;;;;;;;13.67;30.65;101490.32;1690953;83;22219;-67
2022/01/08 09:04:49;;;;;;;35.90;23.90;;;;;;;13.34;31.57;101496.56;1692519;83;21402;-65
2022/01/08 09:07:16;;;;;;;49.83;36.10;;;;;;;12.41;31.93;101497.08;1693693;83;20933;-65
2022/01/08 09:09:43;;;;;;;53.83;40.47;;;;;;;12.07;32.27;101492.02;1694038;83;21838;-65
2022/01/08 09:12:14;;;;;;;31.83;20.93;;;;;;;11.82;33.33;101493.77;1691875;83;21429;-66
2022/01/08 09:14:39;;;;;;;34.30;21.83;;;;;;;12.26;32.77;101491.37;1694290;83;21820;-65
2022/01/08 09:17:07;;;;;;;30.77;21.37;;;;;;;12.21;32.92;101483.21;1694536;82;21245;-67
2022/01/08 09:19:34;;;;;;;29.20;18.70;;;;;;;11.98;32.57;101479.93;1694288;83;21305;-65
2022/01/08 09:22:02;;;;;;;26.23;18.10;;;;;;;12.64;32.13;101474.98;1694079;82;21335;-65
2022/01/08 09:24:29;;;;;;;23.47;15.27;;;;;;;11.68;33.40;101470.87;1690522;84;21577;-68
2022/01/08 09:26:59;;;;;;;19.07;12.70;;;;;;;11.41;33.43;101470.16;1693939;83;21665;-64
2022/01/08 09:29:26;;;;;;;17.03;9.50;;;;;;;11.38;34.31;101467.86;1684884;83;21150;-65
2022/01/08 09:31:53;;;;;;;15.17;9.73;;;;;;;11.30;34.71;101465.72;1693466;83;21324;-67
2022/01/08 09:34:19;;;;;;;15.23;10.03;;;;;;;11.53;33.97;101456.31;1689847;84;22020;-65
2022/01/08 09:36:48;;;;;;;17.20;9.97;;;;;;;11.69;34.13;101458.95;1691299;84;21252;-66
2022/01/08 09:39:15;;;;;;;16.70;9.93;;;;;;;11.80;34.96;101462.23;1691954;84;21333;-64
2022/01/08 09:41:41;;;;;;;11.60;6.93;;;;;;;12.57;32.87;101457.50;1696884;83;21564;-66
2022/01/08 09:44:11;;;;;;;15.53;8.93;;;;;;;12.85;31.64;101450.91;1703641;83;21776;-67
2022/01/08 09:46:41;;;;;;;11.93;7.70;;;;;;;12.64;32.21;101449.31;1704222;82;21635;-68
2022/01/08 09:49:07;;;;;;;11.50;7.20;;;;;;;12.32;31.85;101451.02;1701044;83;21485;-64
2022/01/08 09:51:34;;;;;;;14.03;7.30;;;;;;;11.96;32.54;101451.02;1703724;82;21179;-64
2022/01/08 09:54:02;;;;;;;17.30;9.33;;;;;;;11.90;32.42;101453.30;1701655;83;21368;-67
2022/01/08 09:56:34;;;;;;;13.47;7.63;;;;;;;12.48;32.68;101459.33;1703508;82;21242;-66
2022/01/08 09:59:01;;;;;;;14.33;8.80;;;;;;;11.83;32.87;101451.01;1703558;83;21862;-65
2022/01/08 10:01:34;;;;;;;12.60;8.40;;;;;;;11.81;32.70;101449.50;1704584;83;20986;-64
2022/01/08 10:04:04;;;;;;;15.08;8.98;;;;;;;11.68;32.78;101449.98;1702696;83;21289;-66
2022/01/08 10:06:36;;;;;;;14.67;7.63;;;;;;;11.42;33.81;101445.67;1704572;82;21154;-65
2022/01/08 10:09:05;;;;;;;22.75;12.23;;;;;;;11.68;33.99;101442.14;1703671;82;21330;-65
2022/01/08 10:11:36;;;;;;;19.17;9.30;;;;;;;12.31;33.52;101440.70;1704384;82;21558;-65
2022/01/08 10:14:06;;;;;;;15.43;7.47;;;;;;;12.42;33.16;101435.13;1702878;82;21168;-68
2022/01/08 10:19:24;;;;;;;16.03;7.47;;;;;;;12.35;32.90;101431.55;1703802;82;21386;-64
2022/01/08 10:21:51;;;;;;;15.13;7.83;;;;;;;12.63;32.91;101422.34;1704294;83;21272;-65
2022/01/08 10:24:26;;;;;;;9.53;5.90;;;;;;;12.58;32.67;101416.81;1705732;82;21290;-63
2022/01/08 10:27:02;;;;;;;11.90;6.20;;;;;;;12.47;32.02;101422.89;1705016;82;21774;-64
2022/01/08 10:29:29;;;;;;;9.73;5.80;;;;;;;12.37;32.20;101423.87;1699214;82;21797;-63
2022/01/08 10:31:55;;;;;;;12.57;5.97;;;;;;;12.51;31.98;101416.34;1702723;82;21525;-64
2022/01/08 10:34:24;;;;;;;10.10;5.00;;;;;;;12.53;32.21;101414.36;1697218;83;21388;-64
2022/01/08 10:37:00;;;;;;;10.57;4.83;;;;;;;13.02;31.31;101407.65;1705267;82;21206;-64
2022/01/08 10:39:33;;;;;;;9.97;5.63;;;;;;;13.01;30.98;101412.56;1697363;83;21809;-65
2022/01/08 10:42:13;;;;;;;10.80;5.33;;;;;;;12.28;31.23;101410.99;1694375;83;21851;-65
2022/01/08 10:44:41;;;;;;;11.60;6.20;;;;;;;12.16;31.03;101407.91;1688043;84;21141;-64
2022/01/08 10:47:13;;;;;;;10.88;5.35;;;;;;;11.67;32.04;101409.17;1690135;84;21372;-64
2022/01/08 10:49:45;;;;;;;;;;;;;;;11.43;32.99;101405.52;1693104;84;21066;-67
2022/01/08 10:52:15;;;;;;;12.95;5.80;;;;;;;11.48;32.67;101401.61;1691911;84;20211;-64
2022/01/08 10:54:48;;;;;;;11.10;6.10;;;;;;;11.30;33.10;101397.35;1691492;83;21520;-64
2022/01/08 10:57:14;;;;;;;11.43;6.17;;;;;;;11.23;33.03;101385.91;1689217;84;21815;-67
2022/01/08 10:59:44;;;;;;;14.18;6.80;;;;;;;11.24;33.08;101388.03;1687423;84;21139;-64
2022/01/08 11:02:15;;;;;;;25.20;11.43;;;;;;;11.32;33.16;101392.77;1691381;84;21074;-64
2022/01/08 11:04:50;;;;;;;15.10;6.30;;;;;;;11.58;33.08;101385.31;1689375;84;21079;-63
2022/01/08 11:07:25;;;;;;;12.10;4.90;;;;;;;11.59;32.63;101389.55;1689716;84;21149;-62
2022/01/08 11:09:59;;;;;;;6.70;3.22;;;;;;;11.59;32.53;101385.17;1656644;85;21183;-63
2022/01/08 11:12:32;;;;;;;6.15;2.58;;;;;;;11.69;32.09;101385.81;1642886;86;21454;-64
2022/01/08 11:17:56;;;;;;;5.42;2.40;;;;;;;11.47;31.99;101384.32;1684141;83;21412;-68
2022/01/08 11:20:28;;;;;;;5.85;2.15;;;;;;;11.69;31.82;101384.51;1679548;84;24234;-68
2022/01/08 11:22:57;;;;;;;6.03;2.22;;;;;;;11.63;31.68;101375.19;1690406;83;21798;-68
2022/01/08 11:25:30;;;;;;;8.15;3.27;;;;;;;11.61;31.73;101373.25;1680187;84;21010;-66
2022/01/08 11:28:16;;;;;;;5.72;2.85;;;;;;;11.51;32.04;101371.27;1685899;83;21083;-68
2022/01/08 11:30:47;;;;;;;6.42;3.22;;;;;;;11.71;32.15;101369.19;1688418;84;20936;-69
2022/01/08 11:33:20;;;;;;;7.47;4.20;;;;;;;11.64;32.03;101374.23;1687760;84;22328;-66
2022/01/08 11:35:47;;;;;;;5.17;2.52;;;;;;;11.37;32.43;101369.64;1688170;83;21709;-66
2022/01/08 11:38:18;;;;;;;17.17;14.33;;;;;;;11.20;32.17;101366.66;1691983;84;21014;-69
2022/01/08 11:40:46;;;;;;;12.20;7.37;;;;;;;10.94;32.32;101364.94;1690814;84;21027;-66
2022/01/08 11:43:17;;;;;;;6.85;3.05;;;;;;;10.74;32.67;101362.27;1676782;83;20967;-66
2022/01/08 11:45:47;;;;;;;5.87;2.55;;;;;;;10.81;32.62;101365.89;1677463;84;20988;-65
2022/01/08 11:48:21;;;;;;;352.87;197.85;;;;;;;10.77;32.85;101363.27;1675136;85;21110;-69
2022/01/08 11:50:55;;;;;;;30.00;14.13;;;;;;;10.57;33.21;101363.16;1677409;85;21600;-66
2022/01/08 11:53:33;;;;;;;10.70;4.72;;;;;;;10.56;33.37;101365.44;1676780;85;21043;-72